Time;durP1;ratioP1;P1;durP2;ratioP2;P2;SDS_P1;SDS_P2;PMS_P1;PMS_P2;Temp;Humidity;BMP_temperature;BMP_pressure;BME280_temperature;BME280_humidity;BME280_pressure;Samples;Min_cycle;Max_cycle;Signal;HPM_P1;HPM_P2
2023/01/22 00:02:08;;;;;;;56.95;28.58;;;;;;;9.90;100.00;99802.75;4993862;28;20053;-65
2023/01/22 00:04:35;;;;;;;54.58;29.15;;;;;;;9.69;100.00;99792.56;4995726;28;20038;-64
2023/01/22 00:07:01;;;;;;;55.58;28.58;;;;;;;9.67;100.00;99806.91;4994877;28;20129;-64
2023/01/22 00:09:27;;;;;;;59.13;28.88;;;;;;;9.64;100.00;99804.56;4995095;28;20340;-66
2023/01/22 00:11:52;;;;;;;54.08;29.92;;;;;;;9.60;100.00;99804.06;4994505;28;20275;-65
2023/01/22 00:14:17;;;;;;;56.97;28.52;;;;;;;9.75;100.00;99804.31;4994098;28;20037;-63
2023/01/22 00:16:43;;;;;;;59.70;30.15;;;;;;;9.85;100.00;99797.13;4993587;28;20761;-64
2023/01/22 00:19:08;;;;;;;74.50;34.53;;;;;;;10.02;100.00;99795.38;4994048;28;20030;-64
2023/01/22 00:21:34;;;;;;;79.63;33.75;;;;;;;10.25;100.00;99785.94;4994970;28;20439;-65
2023/01/22 00:24:00;;;;;;;88.03;38.00;;;;;;;10.33;100.00;99795.75;4993002;28;20034;-64
2023/01/22 00:26:26;;;;;;;54.22;28.45;;;;;;;10.44;100.00;99798.97;4994669;28;20342;-64
2023/01/22 00:28:52;;;;;;;51.08;25.00;;;;;;;10.51;100.00;99807.09;4992402;28;20117;-64
2023/01/22 00:31:18;;;;;;;55.65;26.17;;;;;;;10.53;100.00;99813.06;4994301;28;20037;-63
2023/01/22 00:33:45;;;;;;;52.83;27.13;;;;;;;10.51;100.00;99810.56;4994226;28;20049;-64
2023/01/22 00:36:14;;;;;;;60.83;30.10;;;;;;;10.43;100.00;99813.19;4993349;28;20042;-65
2023/01/22 00:38:39;;;;;;;56.10;27.08;;;;;;;10.42;100.00;99813.34;4994406;28;20038;-65
2023/01/22 00:41:07;;;;;;;51.90;28.00;;;;;;;10.12;100.00;99820.75;4991755;28;20054;-64
2023/01/22 00:43:34;;;;;;;55.47;28.65;;;;;;;10.30;100.00;99811.94;4993891;28;20101;-65
2023/01/22 00:46:00;;;;;;;54.47;27.90;;;;;;;10.42;100.00;99826.56;4992364;28;20284;-64
2023/01/22 00:48:26;;;;;;;53.15;27.77;;;;;;;10.28;100.00;99813.91;4994653;28;20042;-66
2023/01/22 00:50:51;;;;;;;61.03;27.63;;;;;;;9.93;100.00;99821.78;4994014;28;20073;-66
2023/01/22 00:53:17;;;;;;;52.85;25.92;;;;;;;9.75;100.00;99821.00;4994602;28;20062;-64
2023/01/22 00:55:57;;;;;;;55.42;28.40;;;;;;;9.73;100.00;99827.44;4993862;28;20030;-64
2023/01/22 00:58:23;;;;;;;59.20;28.67;;;;;;;9.63;100.00;99824.91;4992387;28;20042;-64
2023/01/22 01:00:49;;;;;;;74.28;32.97;;;;;;;9.66;100.00;99834.34;4993744;28;20057;-64
2023/01/22 01:03:27;;;;;;;55.78;28.42;;;;;;;9.87;100.00;99829.53;4994288;28;20050;-63
2023/01/22 01:06:04;;;;;;;52.88;25.50;;;;;;;10.08;100.00;99829.97;4994832;28;20232;-64
2023/01/22 01:08:36;;;;;;;42.78;22.80;;;;;;;10.15;100.00;99828.38;4997317;28;20057;-66
2023/01/22 01:11:05;;;;;;;39.42;19.80;;;;;;;10.27;100.00;99836.06;4995969;28;20276;-64
2023/01/22 01:13:36;;;;;;;38.25;19.80;;;;;;;10.36;100.00;99841.25;4995046;28;20042;-65
2023/01/22 01:16:18;;;;;;;37.97;18.65;;;;;;;10.47;100.00;99842.81;4996088;28;20228;-64
2023/01/22 01:18:43;;;;;;;41.70;19.45;;;;;;;10.66;100.00;99847.84;4995879;28;20335;-66
2023/01/22 01:21:10;;;;;;;35.40;19.33;;;;;;;10.83;100.00;99846.91;4996146;28;20058;-66
2023/01/22 01:23:37;;;;;;;32.28;18.10;;;;;;;10.93;100.00;99859.19;4996489;28;20053;-65
2023/01/22 01:26:07;;;;;;;33.97;18.85;;;;;;;11.00;100.00;99874.28;4995757;28;20088;-64
2023/01/22 01:28:37;;;;;;;31.17;17.63;;;;;;;11.06;100.00;99875.47;4995166;28;20344;-64
2023/01/22 01:31:04;;;;;;;30.00;15.43;;;;;;;11.18;100.00;99879.47;4996369;28;20084;-64
2023/01/22 01:33:29;;;;;;;28.20;15.38;;;;;;;11.33;100.00;99891.09;4994560;28;20238;-66
2023/01/22 01:36:19;;;;;;;28.70;16.33;;;;;;;11.39;100.00;99901.03;4996172;28;20038;-66
2023/01/22 01:38:45;;;;;;;36.85;21.13;;;;;;;11.36;100.00;99895.22;4987540;28;20225;-64
2023/01/22 01:41:13;;;;;;;48.83;25.52;;;;;;;11.12;100.00;99893.34;4995779;28;20041;-65
2023/01/22 01:43:39;;;;;;;50.65;26.27;;;;;;;10.91;100.00;99895.63;4996255;28;20314;-64
2023/01/22 01:46:28;;;;;;;52.75;25.92;;;;;;;10.90;100.00;99889.50;4995188;28;20400;-66
2023/01/22 01:48:54;;;;;;;41.00;23.35;;;;;;;10.72;100.00;99892.22;4996349;28;20046;-65
2023/01/22 01:51:34;;;;;;;49.78;26.00;;;;;;;10.76;100.00;99884.81;4994521;28;20300;-64
2023/01/22 01:54:03;;;;;;;56.80;30.33;;;;;;;10.69;100.00;99887.25;4995531;28;20072;-64
2023/01/22 01:56:38;;;;;;;52.92;26.80;;;;;;;10.56;100.00;99892.16;4995531;28;20054;-64
2023/01/22 01:59:12;;;;;;;54.90;27.50;;;;;;;10.42;100.00;99890.09;4993028;28;20280;-64
2023/01/22 02:01:38;;;;;;;51.10;26.95;;;;;;;10.35;100.00;99892.53;4952901;28;1156465;-64
2023/01/22 02:04:04;;;;;;;53.25;25.73;;;;;;;10.31;100.00;99888.53;4997978;28;20065;-66
2023/01/22 02:06:29;;;;;;;47.88;25.65;;;;;;;10.33;100.00;99883.06;4995963;28;20042;-65
2023/01/22 02:08:56;;;;;;;48.30;26.33;;;;;;;10.23;100.00;99883.19;4996665;28;20065;-64
2023/01/22 02:11:24;;;;;;;49.58;26.70;;;;;;;10.31;100.00;99893.00;4995672;28;20030;-64
2023/01/22 02:13:58;;;;;;;53.53;25.30;;;;;;;10.33;100.00;99889.19;4994632;28;20042;-64
2023/01/22 02:16:24;;;;;;;50.58;24.73;;;;;;;10.26;100.00;99876.75;4996132;28;20034;-66
2023/01/22 02:18:49;;;;;;;44.50;23.02;;;;;;;10.38;100.00;99876.31;4993035;28;20113;-65
2023/01/22 02:21:34;;;;;;;48.15;24.58;;;;;;;10.42;100.00;99876.88;4996296;28;20117;-63
2023/01/22 02:24:00;;;;;;;46.13;23.75;;;;;;;10.46;100.00;99880.88;4994680;28;20086;-64
2023/01/22 02:26:26;;;;;;;56.03;27.88;;;;;;;10.46;100.00;99886.16;4996145;28;20281;-64
2023/01/22 02:28:52;;;;;;;48.60;26.65;;;;;;;10.47;100.00;99888.66;4999505;28;20042;-64
2023/01/22 02:31:17;;;;;;;49.72;26.42;;;;;;;10.55;100.00;99879.91;4999926;28;20108;-65
2023/01/22 02:33:43;;;;;;;64.43;31.92;;;;;;;10.55;100.00;99893.16;4999360;28;20069;-66
2023/01/22 02:36:08;;;;;;;51.30;27.23;;;;;;;10.69;100.00;99883.78;4999699;28;20037;-64
2023/01/22 02:38:33;;;;;;;33.97;18.65;;;;;;;10.27;100.00;99889.81;4999307;28;20038;-63
2023/01/22 02:40:59;;;;;;;30.52;15.43;;;;;;;10.18;100.00;99885.44;4998855;28;20046;-63
2023/01/22 02:43:25;;;;;;;35.42;17.92;;;;;;;9.99;100.00;99883.84;4998735;28;20046;-63
2023/01/22 02:45:52;;;;;;;34.28;17.90;;;;;;;9.66;100.00;99887.22;4999600;28;20030;-66
2023/01/22 02:48:17;;;;;;;34.63;17.60;;;;;;;9.73;100.00;99877.69;4998680;28;20088;-64
2023/01/22 02:50:44;;;;;;;35.53;17.88;;;;;;;9.67;100.00;99883.59;4999071;28;20073;-63
2023/01/22 02:53:09;;;;;;;24.75;13.77;;;;;;;9.70;100.00;99884.09;4999228;28;20069;-65
2023/01/22 02:55:34;;;;;;;26.08;14.38;;;;;;;9.72;100.00;99882.13;4999187;28;20046;-64
2023/01/22 02:58:00;;;;;;;27.17;14.27;;;;;;;9.80;100.00;99890.13;4999655;28;20031;-64
2023/01/22 03:00:25;;;;;;;31.33;15.40;;;;;;;9.81;100.00;99890.97;4999031;28;20042;-64
2023/01/22 03:02:51;;;;;;;27.42;14.32;;;;;;;9.88;100.00;99899.94;4998982;28;20266;-66
2023/01/22 03:05:16;;;;;;;30.30;16.50;;;;;;;9.84;100.00;99894.13;4999550;28;20042;-63
2023/01/22 03:07:43;;;;;;;33.47;16.67;;;;;;;9.84;100.00;99886.19;4999302;28;20056;-64
2023/01/22 03:10:16;;;;;;;29.10;15.80;;;;;;;9.85;100.00;99874.63;4999458;28;20049;-64
2023/01/22 03:23:39;;;;;;;22.58;13.27;;;;;;;10.06;100.00;99879.56;4997811;28;20134;-64
2023/01/22 03:26:05;;;;;;;25.02;12.65;;;;;;;10.35;100.00;99891.69;4998286;28;20273;-64
2023/01/22 03:28:30;;;;;;;35.17;18.15;;;;;;;10.51;100.00;99911.16;4998972;28;20042;-64
2023/01/22 03:30:56;;;;;;;51.55;26.42;;;;;;;10.41;100.00;99918.41;4997823;28;20030;-66
2023/01/22 03:33:22;;;;;;;56.72;26.77;;;;;;;10.36;100.00;99919.81;4995799;28;20035;-64
2023/01/22 03:35:47;;;;;;;51.80;26.27;;;;;;;10.27;100.00;99908.34;4994955;28;20053;-64
2023/01/22 03:38:13;;;;;;;54.20;26.67;;;;;;;10.31;100.00;99898.28;4996172;28;20045;-64
2023/01/22 03:40:38;;;;;;;48.75;25.88;;;;;;;10.32;100.00;99911.38;4994862;28;20369;-65
2023/01/22 03:43:03;;;;;;;54.90;27.00;;;;;;;10.55;100.00;99909.88;4995508;28;20022;-64
2023/01/22 03:45:31;;;;;;;52.13;26.70;;;;;;;10.20;100.00;99912.59;4992896;28;20254;-65
2023/01/22 03:47:57;;;;;;;57.10;30.25;;;;;;;10.49;100.00;99912.31;4994063;28;20023;-64
2023/01/22 03:50:22;;;;;;;59.38;30.17;;;;;;;10.72;100.00;99913.41;4994732;28;20316;-64
2023/01/22 03:52:48;;;;;;;54.58;30.00;;;;;;;10.90;100.00;99917.78;4994089;28;20525;-64
2023/01/22 03:55:13;;;;;;;60.47;30.75;;;;;;;11.03;100.00;99912.88;4993580;28;20034;-64
2023/01/22 03:57:38;;;;;;;50.95;28.73;;;;;;;11.13;100.00;99922.34;4994523;28;20027;-65
2023/01/22 04:00:06;;;;;;;59.92;30.45;;;;;;;11.22;100.00;99923.19;4995972;28;20042;-66
2023/01/22 04:02:32;;;;;;;54.47;29.88;;;;;;;11.30;100.00;99925.88;4994049;28;20046;-65
2023/01/22 04:04:58;;;;;;;53.05;30.35;;;;;;;11.39;100.00;99929.38;4994229;28;20042;-65
2023/01/22 04:07:23;;;;;;;52.00;28.52;;;;;;;11.45;100.00;99940.19;4993507;28;20084;-64
2023/01/22 04:09:49;;;;;;;56.08;30.30;;;;;;;11.48;100.00;99939.84;4992039;28;20078;-64
2023/01/22 04:12:14;;;;;;;55.72;29.35;;;;;;;11.51;100.00;99946.66;4992529;28;20031;-64
2023/01/22 04:14:39;;;;;;;58.05;30.95;;;;;;;11.43;100.00;99947.44;4993605;28;20205;-66
2023/01/22 04:17:05;;;;;;;51.53;29.05;;;;;;;11.29;100.00;99963.97;4994090;28;20361;-65
2023/01/22 04:19:30;;;;;;;50.70;26.50;;;;;;;11.17;100.00;99965.25;4993619;28;20034;-64
2023/01/22 04:21:56;;;;;;;51.83;27.98;;;;;;;11.23;100.00;99967.28;4994427;28;20042;-64
2023/01/22 04:24:21;;;;;;;57.15;27.25;;;;;;;11.33;100.00;99972.44;4992216;28;20109;-64
2023/01/22 04:26:47;;;;;;;52.55;28.27;;;;;;;11.37;100.00;99976.41;4993799;28;20026;-64
2023/01/22 04:29:12;;;;;;;48.67;27.85;;;;;;;11.31;100.00;99977.06;4994501;28;20308;-66
2023/01/22 04:31:37;;;;;;;52.08;26.10;;;;;;;11.03;100.00;99974.66;4994071;28;20341;-65
2023/01/22 04:34:03;;;;;;;48.90;25.88;;;;;;;10.71;100.00;99975.31;4994950;28;20227;-64
2023/01/22 04:36:28;;;;;;;53.70;27.73;;;;;;;10.28;100.00;99970.06;4992302;28;20489;-64
2023/01/22 04:38:54;;;;;;;46.90;24.92;;;;;;;10.31;100.00;99980.34;4994469;28;20038;-64
2023/01/22 04:41:19;;;;;;;55.63;27.95;;;;;;;10.27;100.00;99992.22;4994120;28;20030;-64
2023/01/22 04:43:44;;;;;;;56.70;29.73;;;;;;;10.29;100.00;99996.38;4994162;28;20499;-64
2023/01/22 04:46:10;;;;;;;58.83;30.08;;;;;;;10.50;100.00;100004.00;4994743;28;20045;-66
2023/01/22 04:48:35;;;;;;;62.20;32.10;;;;;;;10.72;100.00;100007.94;4993297;28;20046;-65
2023/01/22 04:51:01;;;;;;;57.42;30.25;;;;;;;10.80;100.00;100016.75;4993836;28;20142;-64
2023/01/22 04:53:26;;;;;;;55.78;30.05;;;;;;;10.66;100.00;100014.69;4993392;28;20049;-63
2023/01/22 04:55:51;;;;;;;53.53;27.38;;;;;;;10.31;100.00;99999.69;4991250;28;21397;-64
2023/01/22 04:58:17;;;;;;;52.13;27.08;;;;;;;10.13;100.00;99999.69;4980870;28;20068;-64
2023/01/22 05:00:42;;;;;;;51.55;26.38;;;;;;;10.09;100.00;100008.91;4978086;28;20223;-65
2023/01/22 05:03:10;;;;;;;54.15;26.35;;;;;;;10.13;100.00;100006.78;4980953;28;20150;-64
2023/01/22 05:05:35;;;;;;;53.03;26.55;;;;;;;10.48;100.00;100012.09;4980452;28;20031;-64
2023/01/22 05:08:01;;;;;;;50.45;24.50;;;;;;;10.72;100.00;100015.88;4981147;28;20375;-65
2023/01/22 05:10:26;;;;;;;45.67;25.00;;;;;;;10.91;100.00;100022.78;4980698;28;20105;-64
2023/01/22 05:12:52;;;;;;;49.47;25.08;;;;;;;11.05;100.00;100022.19;4981179;28;20050;-64
2023/01/22 05:15:17;;;;;;;44.70;24.05;;;;;;;11.17;100.00;100032.34;4980139;28;20054;-65
2023/01/22 05:17:43;;;;;;;50.28;28.90;;;;;;;11.26;100.00;100037.69;4980831;28;20042;-66
2023/01/22 05:20:09;;;;;;;56.10;29.40;;;;;;;11.15;100.00;100044.94;4981417;28;20053;-64
2023/01/22 05:22:34;;;;;;;63.55;31.08;;;;;;;11.03;100.00;100054.16;4981762;28;20051;-64
2023/01/22 05:25:00;;;;;;;49.30;27.30;;;;;;;10.85;100.00;100058.69;4979832;28;20335;-64
2023/01/22 05:27:25;;;;;;;50.75;26.05;;;;;;;10.76;100.00;100064.91;4980468;28;20027;-64
2023/01/22 05:29:51;;;;;;;47.95;25.27;;;;;;;10.76;100.00;100067.56;4980668;28;20034;-66
2023/01/22 05:32:16;;;;;;;48.65;25.50;;;;;;;10.81;100.00;100062.63;4980736;28;20043;-65
2023/01/22 05:34:42;;;;;;;46.42;26.30;;;;;;;10.83;100.00;100065.94;4981197;28;20046;-64
2023/01/22 05:37:07;;;;;;;49.15;25.65;;;;;;;10.92;100.00;100075.59;4980035;28;20089;-65
2023/01/22 05:39:32;;;;;;;45.00;25.02;;;;;;;11.04;100.00;100070.88;4981974;28;20236;-64
2023/01/22 05:41:58;;;;;;;67.55;31.10;;;;;;;11.13;100.00;100068.13;4976863;28;20022;-65
2023/01/22 05:44:25;;;;;;;47.70;27.60;;;;;;;11.02;100.00;100072.84;4981091;28;20041;-64
2023/01/22 05:46:50;;;;;;;50.17;27.55;;;;;;;10.83;100.00;100081.84;4980784;28;20035;-66
2023/01/22 05:49:16;;;;;;;48.85;28.48;;;;;;;10.73;100.00;100089.06;4984475;28;20047;-63
2023/01/22 05:51:41;;;;;;;49.35;27.60;;;;;;;10.95;100.00;100095.66;4980709;28;20061;-65
2023/01/22 05:54:06;;;;;;;50.40;27.38;;;;;;;11.14;100.00;100098.94;4981372;28;20049;-64
2023/01/22 05:56:32;;;;;;;49.42;25.88;;;;;;;11.27;100.00;100106.44;4982985;28;20035;-66
2023/01/22 05:58:58;;;;;;;44.22;25.48;;;;;;;11.36;100.00;100108.16;4984081;28;20026;-67
2023/01/22 06:01:23;;;;;;;49.72;28.13;;;;;;;11.42;100.00;100106.69;4984380;28;20034;-64
2023/01/22 06:03:49;;;;;;;49.97;28.02;;;;;;;11.48;100.00;100100.78;4983339;28;20073;-64
2023/01/22 06:06:14;;;;;;;56.58;29.98;;;;;;;11.49;100.00;100097.16;4985521;28;20244;-65
2023/01/22 06:08:41;;;;;;;51.50;28.63;;;;;;;11.45;100.00;100083.38;4984004;28;20336;-64
2023/01/22 06:11:14;;;;;;;46.45;25.33;;;;;;;11.40;100.00;100087.47;4980868;28;20212;-64
2023/01/22 06:13:40;;;;;;;54.70;27.15;;;;;;;11.28;100.00;100081.59;4983978;28;20050;-66
2023/01/22 06:16:07;;;;;;;48.25;26.20;;;;;;;11.24;100.00;100082.06;4983907;28;20061;-66
2023/01/22 06:18:33;;;;;;;55.00;28.48;;;;;;;11.20;100.00;100087.69;4984139;28;20047;-63
2023/01/22 06:21:00;;;;;;;50.20;26.33;;;;;;;11.20;100.00;100100.13;4983427;28;20259;-63
2023/01/22 06:23:26;;;;;;;49.00;25.63;;;;;;;11.29;100.00;100108.94;4980022;28;20057;-64
2023/01/22 06:25:53;;;;;;;51.95;26.67;;;;;;;11.26;100.00;100119.88;4980089;28;20030;-66
2023/01/22 06:28:19;;;;;;;62.55;32.97;;;;;;;11.17;100.00;100122.47;4983815;28;20045;-65
2023/01/22 06:30:44;;;;;;;73.82;38.28;;;;;;;11.15;100.00;100126.25;4983082;28;20038;-63
2023/01/22 06:33:10;;;;;;;73.57;39.25;;;;;;;11.19;100.00;100128.44;4981258;28;20046;-64
2023/01/22 06:35:35;;;;;;;71.32;36.60;;;;;;;11.29;100.00;100138.09;4980936;28;20049;-64
2023/01/22 06:38:01;;;;;;;73.53;38.40;;;;;;;11.32;100.00;100148.41;4981800;28;20049;-64
2023/01/22 06:40:26;;;;;;;69.20;37.97;;;;;;;11.26;100.00;100155.16;4983663;28;20119;-64
2023/01/22 06:42:52;;;;;;;66.55;35.65;;;;;;;11.25;100.00;100166.75;4984002;28;20026;-65
2023/01/22 06:45:17;;;;;;;62.45;35.05;;;;;;;11.28;100.00;100169.09;4984289;28;20048;-65
2023/01/22 06:47:43;;;;;;;56.20;31.27;;;;;;;11.29;100.00;100164.63;4982963;28;20037;-63
2023/01/22 06:50:10;;;;;;;61.60;32.75;;;;;;;11.29;100.00;100176.06;4983134;28;20046;-64
2023/01/22 06:52:35;;;;;;;59.83;30.27;;;;;;;11.34;100.00;100175.59;4981721;28;20253;-64
2023/01/22 06:55:01;;;;;;;58.47;32.65;;;;;;;11.29;100.00;100176.06;4982281;28;20037;-64
2023/01/22 06:57:26;;;;;;;58.47;32.90;;;;;;;11.39;100.00;100176.78;4983231;28;20034;-66
2023/01/22 06:59:52;;;;;;;75.57;38.20;;;;;;;11.44;100.00;100173.66;4980769;28;20049;-65
2023/01/22 07:02:18;;;;;;;89.45;48.40;;;;;;;11.43;100.00;100172.00;4978967;28;20050;-63
2023/01/22 07:04:44;;;;;;;92.75;50.08;;;;;;;11.37;100.00;100172.63;4981016;28;21370;-64
2023/01/22 07:07:09;;;;;;;79.80;42.30;;;;;;;11.48;100.00;100172.38;4983664;28;20034;-64
2023/01/22 07:09:35;;;;;;;77.72;44.63;;;;;;;11.37;100.00;100167.31;4983687;28;20303;-64
2023/01/22 07:12:00;;;;;;;78.18;43.88;;;;;;;11.26;100.00;100170.22;4980859;28;20466;-64
2023/01/22 07:14:27;;;;;;;94.30;41.67;;;;;;;11.25;100.00;100179.16;4978774;28;20042;-65
2023/01/22 07:16:52;;;;;;;77.45;37.53;;;;;;;11.30;100.00;100187.50;4980437;28;20045;-63
2023/01/22 07:19:18;;;;;;;75.00;39.05;;;;;;;11.25;100.00;100185.31;4982469;28;20039;-64
2023/01/22 07:21:43;;;;;;;70.40;35.90;;;;;;;11.12;100.00;100177.75;4980729;28;20061;-64
2023/01/22 07:24:10;;;;;;;73.07;34.33;;;;;;;11.23;100.00;100184.63;4979895;28;20403;-64
2023/01/22 07:26:36;;;;;;;63.88;30.90;;;;;;;11.27;100.00;100187.78;4979602;28;20332;-63
2023/01/22 07:29:01;;;;;;;63.63;31.40;;;;;;;11.26;100.00;100181.66;4980474;28;20081;-66
2023/01/22 07:31:27;;;;;;;62.67;30.15;;;;;;;11.26;100.00;100191.44;4981193;28;20232;-65
2023/01/22 07:33:53;;;;;;;78.95;38.40;;;;;;;11.25;100.00;100201.22;4981074;28;20339;-64
2023/01/22 07:36:18;;;;;;;76.50;40.08;;;;;;;11.33;100.00;100195.13;4980705;28;20550;-63
2023/01/22 07:38:44;;;;;;;78.00;37.38;;;;;;;11.35;100.00;100191.34;4987577;28;20034;-64
2023/01/22 07:41:09;;;;;;;68.50;37.60;;;;;;;11.33;100.00;100198.63;4995068;28;20034;-65
2023/01/22 07:43:34;;;;;;;71.38;35.53;;;;;;;11.41;100.00;100205.78;4994924;28;20046;-64
2023/01/22 07:46:04;;;;;;;65.00;34.60;;;;;;;11.41;100.00;100206.63;4994284;28;20030;-63
2023/01/22 07:48:30;;;;;;;63.13;34.65;;;;;;;11.40;100.00;100217.38;4994542;28;20026;-63
2023/01/22 07:51:00;;;;;;;64.88;35.60;;;;;;;11.49;100.00;100219.13;4994997;28;20034;-63
2023/01/22 07:53:26;;;;;;;65.32;35.55;;;;;;;11.62;100.00;100221.34;4994561;28;20326;-64
2023/01/22 07:55:52;;;;;;;65.13;34.45;;;;;;;11.63;100.00;100220.38;4993822;28;20537;-64
2023/01/22 07:58:17;;;;;;;65.65;34.10;;;;;;;11.68;100.00;100228.69;4994660;28;20339;-66
2023/01/22 08:00:43;;;;;;;65.22;34.25;;;;;;;11.72;100.00;100227.38;4994818;28;20045;-65
2023/01/22 08:03:13;;;;;;;67.85;34.00;;;;;;;11.79;100.00;100223.97;4995188;28;20046;-64
2023/01/22 08:05:39;;;;;;;59.38;31.67;;;;;;;11.92;100.00;100228.00;4995218;28;20043;-64
2023/01/22 08:08:10;;;;;;;85.63;38.88;;;;;;;11.93;100.00;100221.72;4994514;28;20426;-64
2023/01/22 08:10:37;;;;;;;112.20;45.17;;;;;;;11.89;100.00;100237.13;4992841;28;20030;-65
2023/01/22 08:13:02;;;;;;;76.90;34.38;;;;;;;11.93;100.00;100240.28;4993563;28;20037;-65
2023/01/22 08:15:28;;;;;;;74.38;36.60;;;;;;;11.83;100.00;100243.06;4991533;28;20046;-63
2023/01/22 08:17:53;;;;;;;74.15;39.10;;;;;;;11.93;100.00;100245.59;4994585;28;20045;-64
2023/01/22 08:20:20;;;;;;;79.03;40.95;;;;;;;11.97;100.00;100255.75;4994724;28;20077;-64
2023/01/22 08:22:45;;;;;;;92.70;45.20;;;;;;;12.07;100.00;100253.78;4994922;28;20349;-64
2023/01/22 08:25:11;;;;;;;56.65;30.55;;;;;;;12.16;100.00;100249.34;4994226;28;20050;-65
2023/01/22 08:27:37;;;;;;;74.50;34.45;;;;;;;12.25;100.00;100255.53;4995008;28;20042;-63
2023/01/22 08:30:04;;;;;;;60.15;31.58;;;;;;;12.32;100.00;100260.03;4993712;28;20030;-64
2023/01/22 08:32:29;;;;;;;55.78;29.95;;;;;;;12.34;100.00;100265.19;4993221;28;20085;-63
2023/01/22 08:34:56;;;;;;;55.33;28.33;;;;;;;12.35;100.00;100261.53;4993896;28;20442;-64
2023/01/22 08:37:22;;;;;;;43.72;23.48;;;;;;;12.38;100.00;100270.00;4993642;28;20068;-63
2023/01/22 08:39:48;;;;;;;44.97;24.33;;;;;;;12.43;100.00;100269.53;4994367;28;20058;-65
2023/01/22 08:42:13;;;;;;;42.75;23.48;;;;;;;12.41;100.00;100275.00;4992523;28;20365;-65
2023/01/22 08:44:39;;;;;;;43.60;23.75;;;;;;;12.46;100.00;100266.56;4993233;28;20034;-64
2023/01/22 08:47:04;;;;;;;37.58;20.60;;;;;;;12.45;100.00;100270.19;4993655;28;20342;-64
2023/01/22 08:49:29;;;;;;;36.00;18.40;;;;;;;12.29;100.00;100278.09;4993193;28;20047;-63
2023/01/22 08:51:55;;;;;;;33.90;17.50;;;;;;;12.25;100.00;100279.41;4992883;28;20027;-65
2023/01/22 08:54:21;;;;;;;31.17;16.80;;;;;;;12.18;100.00;100284.53;4994846;28;20057;-66
2023/01/22 08:56:47;;;;;;;33.83;17.40;;;;;;;12.11;100.00;100280.84;4994246;28;20034;-63
2023/01/22 08:59:13;;;;;;;33.72;17.42;;;;;;;12.14;100.00;100281.38;4995059;28;20081;-64
2023/01/22 09:01:38;;;;;;;29.95;16.35;;;;;;;12.20;100.00;100276.41;4994408;28;20045;-63
2023/01/22 09:04:06;;;;;;;32.58;16.45;;;;;;;12.26;100.00;100276.59;4993028;28;20054;-63
2023/01/22 09:06:32;;;;;;;27.20;14.93;;;;;;;12.31;100.00;100282.25;4993893;28;20136;-63
2023/01/22 09:09:00;;;;;;;29.65;15.77;;;;;;;12.33;100.00;100282.09;4983176;28;20121;-64
2023/01/22 09:11:26;;;;;;;29.17;15.85;;;;;;;12.42;100.00;100278.50;4992121;28;20101;-65
2023/01/22 09:13:55;;;;;;;32.17;16.73;;;;;;;12.51;100.00;100277.56;4996392;28;20042;-65
2023/01/22 09:16:20;;;;;;;32.53;16.75;;;;;;;12.54;100.00;100274.56;4990712;28;20278;-63
2023/01/22 09:18:46;;;;;;;30.80;16.13;;;;;;;12.51;100.00;100272.25;4992696;28;20116;-63
2023/01/22 09:21:11;;;;;;;34.42;16.38;;;;;;;12.44;100.00;100272.03;4993411;28;20030;-64
2023/01/22 09:23:37;;;;;;;31.13;16.48;;;;;;;12.33;100.00;100266.19;4996799;28;20106;-63
2023/01/22 09:26:02;;;;;;;30.38;16.73;;;;;;;12.28;100.00;100264.00;4995677;28;20190;-63
2023/01/22 09:28:28;;;;;;;30.40;15.93;;;;;;;12.15;100.00;100260.97;4996013;28;20447;-64
2023/01/22 09:30:53;;;;;;;29.65;15.13;;;;;;;11.91;100.00;100263.50;4996294;28;20259;-65
2023/01/22 09:33:19;;;;;;;29.00;15.02;;;;;;;11.59;100.00;100267.59;4994981;28;20268;-65
2023/01/22 09:35:44;;;;;;;30.33;16.30;;;;;;;11.55;100.00;100265.41;4994832;28;20038;-64
2023/01/22 09:38:13;;;;;;;31.48;15.73;;;;;;;11.54;100.00;100261.94;4996562;28;20049;-63
2023/01/22 09:40:47;;;;;;;29.85;17.10;;;;;;;11.38;100.00;100264.44;4994347;28;20102;-64
2023/01/22 09:43:44;;;;;;;28.02;15.57;;;;;;;11.31;100.00;100263.38;4989124;28;20065;-65
2023/01/22 09:46:22;;;;;;;24.35;12.40;;;;;;;11.18;100.00;100254.00;5000091;28;20034;-63
2023/01/22 09:48:53;;;;;;;26.00;14.00;;;;;;;11.26;100.00;100263.00;5001401;28;20109;-64
2023/01/22 09:51:20;;;;;;;26.95;12.20;;;;;;;11.28;100.00;100255.75;5000861;28;20146;-63
2023/01/22 09:53:52;;;;;;;20.85;9.90;;;;;;;11.18;100.00;100255.81;5000906;28;20237;-65
2023/01/22 09:56:21;;;;;;;15.50;8.85;;;;;;;11.12;100.00;100254.63;5001164;28;20042;-64
2023/01/22 09:58:50;;;;;;;17.17;8.45;;;;;;;10.93;100.00;100261.91;4984419;28;20375;-64
2023/01/22 10:01:18;;;;;;;18.35;9.00;;;;;;;10.82;100.00;100257.66;4982492;28;20041;-64
2023/01/22 10:03:55;;;;;;;16.48;9.00;;;;;;;10.75;100.00;100256.59;4980019;28;20113;-66
2023/01/22 10:06:22;;;;;;;14.77;8.25;;;;;;;10.81;100.00;100246.22;4981408;28;20062;-64
2023/01/22 10:09:08;;;;;;;14.00;8.02;;;;;;;10.96;100.00;100246.53;4981642;28;20209;-64
2023/01/22 10:11:36;;;;;;;11.30;6.55;;;;;;;10.82;100.00;100244.41;4981727;28;20034;-64
2023/01/22 10:14:06;;;;;;;11.77;7.13;;;;;;;10.85;100.00;100244.13;4981300;28;20389;-65
2023/01/22 10:16:32;;;;;;;15.93;8.15;;;;;;;10.91;100.00;100240.03;4986756;28;20042;-65
2023/01/22 10:19:06;;;;;;;12.50;7.03;;;;;;;10.91;100.00;100237.38;4998526;28;20042;-63
2023/01/22 10:21:43;;;;;;;12.13;6.57;;;;;;;10.90;100.00;100247.13;4993500;28;20034;-63
2023/01/22 10:24:12;;;;;;;12.63;7.57;;;;;;;10.93;100.00;100241.53;4993901;28;20058;-64
2023/01/22 10:26:48;;;;;;;19.80;9.13;;;;;;;10.91;100.00;100240.03;4992911;28;20037;-63
2023/01/22 10:29:28;;;;;;;17.55;8.38;;;;;;;10.90;100.00;100246.31;4994400;28;20243;-64
2023/01/22 10:31:56;;;;;;;12.55;7.32;;;;;;;10.86;100.00;100246.63;4995468;28;20037;-64
2023/01/22 10:34:36;;;;;;;14.27;9.02;;;;;;;10.82;100.00;100247.06;4995156;28;20089;-66
2023/01/22 10:37:03;;;;;;;21.52;12.23;;;;;;;10.81;100.00;100246.22;4992858;28;20076;-64
2023/01/22 10:39:40;;;;;;;30.13;13.00;;;;;;;10.82;100.00;100249.72;4997745;28;20046;-64
2023/01/22 10:42:05;;;;;;;26.95;12.07;;;;;;;10.81;100.00;100254.19;4998568;28;20037;-63
2023/01/22 10:44:31;;;;;;;18.67;9.65;;;;;;;10.74;100.00;100249.63;4997160;28;20331;-66
2023/01/22 10:47:07;;;;;;;17.30;9.60;;;;;;;10.77;100.00;100250.16;4997692;28;20030;-65
2023/01/22 10:49:33;;;;;;;18.67;10.18;;;;;;;10.72;100.00;100248.97;4997708;28;20034;-63
2023/01/22 10:52:06;;;;;;;15.68;8.65;;;;;;;10.69;100.00;100257.19;4998243;28;20309;-64
2023/01/22 10:54:42;;;;;;;13.60;8.33;;;;;;;10.65;100.00;100246.06;4998280;28;20140;-63
2023/01/22 10:57:35;;;;;;;14.30;7.35;;;;;;;10.68;100.00;100256.38;4997979;28;20359;-64
2023/01/22 11:00:18;;;;;;;24.73;8.02;;;;;;;10.74;100.00;100258.41;4994800;28;20054;-63
2023/01/22 11:02:47;;;;;;;17.25;7.72;;;;;;;10.77;100.00;100244.03;4998411;28;20669;-63
2023/01/22 11:05:24;;;;;;;13.52;8.23;;;;;;;10.81;100.00;100237.44;4998178;28;20113;-65
2023/01/22 11:07:53;;;;;;;13.10;7.60;;;;;;;10.87;100.00;100235.03;4998262;28;20349;-66
2023/01/22 11:10:29;;;;;;;16.73;8.00;;;;;;;11.01;100.00;100243.44;4999010;28;20239;-64
2023/01/22 11:13:12;;;;;;;14.35;8.13;;;;;;;11.01;100.00;100246.06;4999208;28;20076;-63
2023/01/22 11:15:44;;;;;;;15.13;8.05;;;;;;;11.02;100.00;100245.09;4998489;28;20105;-64
2023/01/22 11:18:17;;;;;;;13.93;7.10;;;;;;;11.05;100.00;100242.97;4997352;28;20066;-64
2023/01/22 11:20:53;;;;;;;13.77;8.13;;;;;;;11.12;100.00;100248.50;4998708;28;20052;-66